Time;durP1;ratioP1;P1;durP2;ratioP2;P2;SDS_P1;SDS_P2;PMS_P1;PMS_P2;Temp;Humidity;BMP_temperature;BMP_pressure;BME280_temperature;BME280_humidity;BME280_pressure;Samples;Min_cycle;Max_cycle;Signal;HPM_P1;HPM_P2
2023/06/05 00:02:50;;;;;;;4.55;2.97;;;;;;;16.22;100.00;100709.28;5567039;32;34560;-66
2023/06/05 00:06:00;;;;;;;7.05;2.78;;;;;;;16.23;100.00;100712.78;5567148;32;34707;-66
2023/06/05 00:09:07;;;;;;;6.37;2.70;;;;;;;16.28;100.00;100707.66;5567144;32;33587;-66
2023/06/05 00:12:15;;;;;;;5.40;2.80;;;;;;;16.36;100.00;100710.19;5567141;32;33898;-66
2023/06/05 00:15:22;;;;;;;4.75;2.95;;;;;;;16.37;100.00;100711.81;5567002;32;34566;-66
2023/06/05 00:18:30;;;;;;;3.97;2.28;;;;;;;16.40;100.00;100708.78;5566021;32;33845;-66
2023/06/05 00:21:36;;;;;;;6.45;3.22;;;;;;;16.42;100.00;100706.72;5565975;32;33839;-66
2023/06/05 00:24:43;;;;;;;6.00;2.87;;;;;;;16.47;100.00;100704.25;5566883;32;33865;-67
2023/06/05 00:27:49;;;;;;;5.93;2.80;;;;;;;16.45;100.00;100709.84;5566874;32;34590;-67
2023/06/05 00:30:57;;;;;;;4.32;2.97;;;;;;;16.48;100.00;100709.44;5566895;32;33762;-66
2023/06/05 00:34:04;;;;;;;4.30;2.53;;;;;;;16.52;100.00;100704.50;5566914;32;33894;-67
2023/06/05 00:37:13;;;;;;;4.18;2.60;;;;;;;16.57;100.00;100701.22;5565882;32;34366;-67
2023/06/05 00:40:22;;;;;;;8.25;2.87;;;;;;;16.52;100.00;100697.28;5566732;32;33848;-67
2023/06/05 00:43:30;;;;;;;4.32;2.83;;;;;;;16.59;100.00;100696.53;5566684;32;33974;-66
2023/06/05 00:46:38;;;;;;;5.43;2.65;;;;;;;16.61;100.00;100700.66;5566656;32;33819;-66
2023/06/05 00:49:47;;;;;;;5.65;2.90;;;;;;;16.65;100.00;100701.09;5566267;32;33850;-67
2023/06/05 00:52:55;;;;;;;3.25;2.55;;;;;;;16.68;100.00;100700.69;5566410;32;34678;-67
2023/06/05 00:56:02;;;;;;;8.05;2.87;;;;;;;16.67;100.00;100697.19;5565895;32;34100;-66
2023/06/05 00:59:08;;;;;;;4.00;2.80;;;;;;;16.68;100.00;100693.50;5566278;32;34841;-67
2023/06/05 01:02:16;;;;;;;4.93;2.70;;;;;;;16.70;100.00;100702.13;5567358;32;34276;-66
2023/06/05 01:05:26;;;;;;;4.45;2.60;;;;;;;16.72;100.00;100705.44;5568800;32;33828;-66
2023/06/05 01:08:39;;;;;;;6.93;2.85;;;;;;;16.73;100.00;100708.97;5567849;32;34014;-66
2023/06/05 01:12:13;;;;;;;7.87;2.50;;;;;;;16.84;100.00;100705.72;5568556;31;34607;-66
2023/06/05 01:15:28;;;;;;;7.07;2.58;;;;;;;16.90;100.00;100694.19;5568672;32;34426;-66
2023/06/05 01:18:34;;;;;;;5.95;2.70;;;;;;;16.86;100.00;100701.78;5568581;32;33349;-67
2023/06/05 01:21:42;;;;;;;5.28;2.33;;;;;;;16.80;100.00;100697.22;5568579;32;33648;-67
2023/06/05 01:24:49;;;;;;;4.03;2.50;;;;;;;16.82;100.00;100697.87;5568532;32;33762;-66
2023/06/05 01:28:08;;;;;;;5.40;2.60;;;;;;;16.78;100.00;100693.94;5568543;32;33812;-67
2023/06/05 01:31:21;;;;;;;5.95;2.65;;;;;;;16.76;100.00;100704.03;5567751;32;33973;-66
2023/06/05 01:34:30;;;;;;;6.78;2.55;;;;;;;16.75;100.00;100702.38;5568545;32;34334;-67
2023/06/05 01:37:46;;;;;;;5.78;2.58;;;;;;;16.78;100.00;100698.47;5568431;32;34784;-66
2023/06/05 01:40:55;;;;;;;7.00;2.70;;;;;;;16.76;100.00;100697.84;5568425;32;34596;-66
2023/06/05 01:44:05;;;;;;;5.67;2.77;;;;;;;16.78;100.00;100695.78;5567626;32;33838;-66
2023/06/05 01:47:12;;;;;;;8.07;2.50;;;;;;;16.72;100.00;100694.75;5567672;32;33702;-67
2023/06/05 01:50:20;;;;;;;3.58;2.40;;;;;;;16.70;100.00;100688.75;5568266;32;34597;-67
2023/06/05 01:53:29;;;;;;;3.78;2.72;;;;;;;16.72;100.00;100693.91;5568441;32;34467;-66
2023/06/05 01:56:43;;;;;;;5.28;2.40;;;;;;;16.70;100.00;100690.63;5568187;32;33920;-67
2023/06/05 01:59:50;;;;;;;6.47;2.70;;;;;;;16.69;100.00;100688.97;5567419;32;33484;-67
2023/06/05 02:02:58;;;;;;;4.62;2.50;;;;;;;16.66;100.00;100686.66;5568210;32;33850;-66
2023/06/05 02:06:07;;;;;;;5.47;2.47;;;;;;;16.72;100.00;100693.91;5568213;32;34869;-67
2023/06/05 02:09:16;;;;;;;5.75;2.40;;;;;;;16.71;100.00;100689.56;5568154;32;33832;-66
2023/06/05 02:12:26;;;;;;;3.70;2.70;;;;;;;16.79;100.00;100689.41;5567608;32;34883;-66
2023/06/05 02:15:34;;;;;;;6.50;2.70;;;;;;;16.79;100.00;100687.56;5568127;32;33824;-66
2023/06/05 02:18:48;;;;;;;2.97;2.40;;;;;;;16.86;100.00;100684.87;5567185;32;33935;-66
2023/06/05 02:21:57;;;;;;;5.25;3.15;;;;;;;16.76;100.00;100679.09;5568036;32;34996;-66
2023/06/05 02:25:06;;;;;;;4.10;2.70;;;;;;;16.69;100.00;100689.78;5562340;32;33774;-66
2023/06/05 02:28:15;;;;;;;3.90;2.53;;;;;;;16.71;100.00;100681.53;5567901;32;34543;-66
2023/06/05 02:31:24;;;;;;;;;;;;;;;16.67;100.00;100693.69;5568371;32;33714;-66
2023/06/05 02:34:30;;;;;;;4.70;2.75;;;;;;;16.73;100.00;100690.22;5554720;32;34272;-67
2023/06/05 02:37:44;;;;;;;5.45;2.53;;;;;;;16.71;100.00;100692.25;5567981;32;34382;-67
2023/06/05 02:40:52;;;;;;;4.18;2.65;;;;;;;16.70;100.00;100691.41;5567928;32;33809;-67
2023/06/05 02:44:02;;;;;;;;;;;;;;;16.78;100.00;100691.28;5568301;32;34129;-67
2023/06/05 02:47:07;;;;;;;5.25;2.53;;;;;;;16.67;100.00;100686.47;5568045;32;34276;-67
2023/06/05 02:50:16;;;;;;;7.28;2.65;;;;;;;16.67;100.00;100686.47;5567737;31;34507;-67
2023/06/05 02:53:23;;;;;;;7.97;2.65;;;;;;;16.73;100.00;100683.00;5567775;32;33987;-67
2023/06/05 02:56:32;;;;;;;6.03;2.50;;;;;;;16.68;100.00;100689.97;5567775;32;34301;-67
2023/06/05 02:59:39;;;;;;;5.10;2.80;;;;;;;16.73;100.00;100684.84;5567605;32;33958;-67
2023/06/05 03:02:48;;;;;;;4.28;2.72;;;;;;;16.75;100.00;100683.63;5567802;32;33672;-67
2023/06/05 03:05:54;;;;;;;13.70;3.12;;;;;;;16.80;100.00;100689.19;5567704;32;34890;-67
2023/06/05 03:09:02;;;;;;;5.03;2.72;;;;;;;16.65;100.00;100685.88;5567740;32;33724;-67
2023/06/05 03:12:07;;;;;;;5.40;2.60;;;;;;;16.63;100.00;100674.50;5567618;32;33592;-66
2023/06/05 03:15:14;;;;;;;7.05;2.58;;;;;;;16.61;100.00;100678.41;5554021;32;33766;-67
2023/06/05 03:18:21;;;;;;;3.45;2.65;;;;;;;16.71;100.00;100677.00;5567465;32;33818;-67
2023/06/05 03:21:28;;;;;;;6.40;2.58;;;;;;;16.60;100.00;100677.59;5567479;32;34655;-67
2023/06/05 03:24:37;;;;;;;5.32;2.72;;;;;;;16.61;100.00;100687.25;5559637;32;33896;-67
2023/06/05 03:27:50;;;;;;;4.82;2.80;;;;;;;16.59;100.00;100685.81;5553699;32;33774;-67
2023/06/05 03:30:58;;;;;;;6.60;2.78;;;;;;;16.59;100.00;100683.16;5567300;32;33917;-67
2023/06/05 03:34:10;;;;;;;5.05;2.83;;;;;;;16.52;100.00;100678.53;5567474;32;33816;-67
2023/06/05 03:37:19;;;;;;;8.90;3.30;;;;;;;16.53;100.00;100674.84;5554119;32;34523;-67
2023/06/05 03:40:25;;;;;;;4.25;2.83;;;;;;;16.52;100.00;100678.53;5567460;32;33861;-68
2023/06/05 03:43:32;;;;;;;6.12;2.92;;;;;;;16.55;100.00;100676.50;5567436;32;35357;-68
2023/06/05 03:46:40;;;;;;;9.25;3.30;;;;;;;16.56;100.00;100680.81;5567388;32;34568;-68
2023/06/05 03:49:48;;;;;;;9.77;3.30;;;;;;;16.56;100.00;100689.69;5558002;31;33775;-68
2023/06/05 03:53:02;;;;;;;5.68;3.30;;;;;;;16.58;100.00;100693.03;5586888;31;34326;-68
2023/06/05 03:56:08;;;;;;;5.93;3.00;;;;;;;16.67;100.00;100696.34;5587008;31;33611;-68
2023/06/05 03:59:19;;;;;;;7.30;2.87;;;;;;;16.74;100.00;100694.56;5586795;31;33923;-69
2023/06/05 04:02:26;;;;;;;7.93;3.25;;;;;;;16.72;100.00;100701.94;5586823;31;34579;-68
2023/06/05 04:05:35;;;;;;;4.85;3.30;;;;;;;16.88;100.00;100701.59;5586917;31;33913;-67
2023/06/05 04:08:41;;;;;;;6.45;3.05;;;;;;;17.05;100.00;100699.38;5586771;31;34280;-68
2023/06/05 04:11:49;;;;;;;4.60;3.00;;;;;;;17.22;100.00;100701.50;5586583;31;34688;-68
2023/06/05 04:14:56;;;;;;;5.37;3.22;;;;;;;17.16;100.00;100696.94;5585804;31;33769;-68
2023/06/05 04:18:02;;;;;;;7.50;3.33;;;;;;;17.36;100.00;100691.63;5585773;31;33808;-68
2023/06/05 04:21:08;;;;;;;10.00;3.40;;;;;;;17.47;100.00;100699.06;5586779;31;34337;-68
2023/06/05 04:24:19;;;;;;;4.82;3.12;;;;;;;17.54;100.00;100701.75;5586577;31;34494;-68
2023/06/05 04:27:28;;;;;;;8.05;3.20;;;;;;;17.21;100.00;100704.38;5586493;31;33963;-68
2023/06/05 04:30:37;;;;;;;8.18;3.55;;;;;;;17.24;100.00;100695.91;5586492;31;33661;-68
2023/06/05 04:33:48;;;;;;;7.83;3.30;;;;;;;17.43;100.00;100699.69;5582656;31;34573;-68
2023/06/05 04:36:56;;;;;;;5.20;2.90;;;;;;;17.55;100.00;100698.88;5586083;31;34859;-68
2023/06/05 04:40:09;;;;;;;6.90;2.90;;;;;;;17.89;100.00;100694.34;5586078;31;33867;-69
2023/06/05 04:43:17;;;;;;;10.10;2.90;;;;;;;17.95;100.00;100698.91;5572359;31;33928;-68
2023/06/05 04:46:24;;;;;;;10.48;3.50;;;;;;;18.30;100.00;100702.94;5574113;31;34481;-68
2023/06/05 04:49:30;;;;;;;9.05;3.30;;;;;;;18.03;100.00;100695.97;5582990;31;33838;-68
2023/06/05 04:52:35;;;;;;;5.82;3.20;;;;;;;18.33;100.00;100701.72;5586018;31;33780;-69
2023/06/05 04:55:42;;;;;;;9.95;2.95;;;;;;;18.28;100.00;100705.03;5585315;31;34227;-68
2023/06/05 04:58:47;;;;;;;8.30;3.28;;;;;;;18.35;100.00;100702.34;5586047;31;33594;-69
2023/06/05 05:01:51;;;;;;;7.00;3.17;;;;;;;18.17;100.00;100714.56;5585788;31;33821;-69
2023/06/05 05:04:56;;;;;;;6.60;2.90;;;;;;;18.28;98.77;100704.22;5585930;31;34089;-68
2023/06/05 05:08:02;;;;;;;10.05;2.80;;;;;;;18.31;99.31;100693.03;5585728;31;33846;-68
2023/06/05 05:11:07;;;;;;;6.87;2.92;;;;;;;18.49;99.78;100702.06;5585463;31;34759;-69
2023/06/05 05:14:12;;;;;;;6.43;2.70;;;;;;;18.70;100.00;100705.56;5585647;31;33825;-69
2023/06/05 05:17:19;;;;;;;6.32;2.97;;;;;;;18.96;94.52;100711.66;5577896;31;33898;-69
2023/06/05 05:20:24;;;;;;;9.18;3.40;;;;;;;18.83;95.86;100705.53;5575659;31;33648;-69
2023/06/05 05:23:30;;;;;;;56.70;4.90;;;;;;;19.11;94.92;100708.69;5575908;31;33686;-68
2023/06/05 05:26:39;;;;;;;10.02;3.47;;;;;;;19.52;91.26;100705.53;5579348;31;33492;-68
2023/06/05 05:29:45;;;;;;;5.43;3.15;;;;;;;19.32;91.74;100700.25;5579824;31;34099;-69
2023/06/05 05:32:49;;;;;;;9.52;3.00;;;;;;;19.14;91.18;100700.16;5584149;31;33985;-68
2023/06/05 05:35:53;;;;;;;6.47;3.35;;;;;;;19.08;91.58;100699.16;5578274;31;33985;-68
2023/06/05 05:38:57;;;;;;;6.72;3.28;;;;;;;18.99;93.47;100707.69;5572106;31;33716;-69
2023/06/05 05:42:02;;;;;;;11.95;3.40;;;;;;;18.99;91.84;100703.16;5571212;31;33713;-69
2023/06/05 05:45:07;;;;;;;9.32;3.12;;;;;;;18.90;88.16;100703.59;5584463;31;33801;-69
2023/06/05 05:48:11;;;;;;;5.85;3.15;;;;;;;19.08;87.49;100706.41;5578986;31;33817;-69
2023/06/05 05:51:15;;;;;;;9.10;3.20;;;;;;;19.30;86.92;100714.97;5566743;31;33722;-68
2023/06/05 05:54:22;;;;;;;9.30;3.37;;;;;;;19.32;86.61;100721.78;5577531;31;34480;-69
2023/06/05 05:57:27;;;;;;;6.20;3.40;;;;;;;19.39;80.85;100714.50;5571815;31;34526;-69
2023/06/05 06:00:30;;;;;;;7.32;3.17;;;;;;;19.76;83.00;100717.34;5568964;31;33742;-69
2023/06/05 06:03:37;;;;;;;6.15;2.90;;;;;;;20.08;83.76;100721.66;5567881;31;34454;-69
2023/06/05 06:06:41;;;;;;;8.35;3.17;;;;;;;20.03;85.07;100726.06;5579453;31;34488;-68
2023/06/05 06:09:46;;;;;;;7.62;3.08;;;;;;;20.06;86.93;100714.81;5586160;31;33670;-69
2023/06/05 06:12:50;;;;;;;11.63;3.20;;;;;;;19.45;91.06;100716.38;5572170;31;34088;-68
2023/06/05 06:15:53;;;;;;;7.47;3.25;;;;;;;19.55;91.11;100710.50;5572824;31;34505;-69
2023/06/05 06:18:58;;;;;;;7.50;3.22;;;;;;;19.59;91.32;100713.56;5571307;31;34910;-68
2023/06/05 06:22:04;;;;;;;10.75;3.53;;;;;;;19.98;89.66;100710.56;5567816;32;33798;-68
2023/06/05 06:25:10;;;;;;;9.98;3.53;;;;;;;19.82;87.85;100717.31;5575849;31;34888;-68
2023/06/05 06:28:16;;;;;;;13.45;3.85;;;;;;;19.73;88.10;100717.81;5568130;31;33878;-68
2023/06/05 06:31:23;;;;;;;10.27;3.30;;;;;;;20.06;84.97;100706.75;5573940;31;33357;-69
2023/06/05 06:34:27;;;;;;;5.68;3.28;;;;;;;20.09;84.80;100698.25;5586159;31;33801;-69
2023/06/05 06:37:30;;;;;;;15.40;3.90;;;;;;;20.57;80.72;100698.37;5581843;31;34273;-69
2023/06/05 06:40:35;;;;;;;9.52;3.55;;;;;;;20.77;76.73;100704.31;5581153;31;33808;-69
2023/06/05 06:43:41;;;;;;;9.85;3.45;;;;;;;20.36;79.41;100697.78;5573035;31;34369;-69
2023/06/05 06:46:45;;;;;;;6.22;3.00;;;;;;;20.73;78.41;100703.12;5584327;31;34533;-69
2023/06/05 06:49:49;;;;;;;9.77;3.12;;;;;;;20.93;78.05;100706.41;5587044;31;34514;-68
2023/06/05 06:52:53;;;;;;;15.70;3.97;;;;;;;21.04;75.08;100699.44;5580280;31;33663;-69
2023/06/05 06:55:57;;;;;;;14.50;3.42;;;;;;;20.80;76.13;100701.19;5570864;31;34236;-69
2023/06/05 06:59:02;;;;;;;13.18;3.65;;;;;;;20.76;78.24;100702.72;5569312;31;33643;-69
2023/06/05 07:02:13;;;;;;;15.55;3.50;;;;;;;20.91;77.33;100711.22;5575986;31;34514;-69
2023/06/05 07:05:20;;;;;;;7.30;3.10;;;;;;;21.10;80.65;100704.75;5585018;31;34133;-69
2023/06/05 07:08:23;;;;;;;11.07;3.83;;;;;;;20.95;80.26;100703.50;5566133;31;33869;-69
2023/06/05 07:11:27;;;;;;;16.20;3.58;;;;;;;20.95;80.45;100698.09;5567249;32;33825;-69
2023/06/05 07:14:32;;;;;;;16.33;4.00;;;;;;;20.87;81.29;100698.41;5566404;32;34144;-68
2023/06/05 07:17:35;;;;;;;12.07;3.70;;;;;;;20.51;85.51;100701.97;5567420;32;34326;-69
2023/06/05 07:20:39;;;;;;;12.20;3.35;;;;;;;20.56;88.32;100702.13;5567371;32;35066;-69
2023/06/05 07:23:51;;;;;;;12.50;3.67;;;;;;;20.61;86.22;100702.25;5567250;32;33805;-68
2023/06/05 07:26:56;;;;;;;12.18;3.70;;;;;;;20.67;85.42;100702.16;5566901;32;34536;-68
2023/06/05 07:30:01;;;;;;;14.52;3.75;;;;;;;20.72;86.90;100710.41;5567063;32;34037;-68
2023/06/05 07:33:05;;;;;;;7.62;3.28;;;;;;;20.73;85.74;100712.06;5566456;32;34468;-68
2023/06/05 07:36:15;;;;;;;12.25;3.42;;;;;;;20.64;71.41;100712.59;5567201;32;34026;-69
2023/06/05 07:39:20;;;;;;;12.63;3.17;;;;;;;20.76;67.96;100717.00;5566426;32;34203;-69
2023/06/05 07:42:23;;;;;;;11.52;3.10;;;;;;;20.78;67.87;100722.16;5568534;31;35473;-69
2023/06/05 07:45:27;;;;;;;18.73;3.22;;;;;;;20.95;66.38;100723.19;5585978;31;33856;-69
2023/06/05 07:48:31;;;;;;;6.87;3.05;;;;;;;21.00;66.19;100717.94;5569758;31;342434;-70
2023/06/05 07:51:36;;;;;;;7.32;3.10;;;;;;;20.77;63.40;100717.81;5569035;31;34253;-69
2023/06/05 07:54:41;;;;;;;12.48;3.40;;;;;;;20.96;63.70;100715.94;5553411;32;34297;-70
2023/06/05 07:57:45;;;;;;;13.85;3.70;;;;;;;20.78;64.08;100711.37;5577257;31;33948;-69
2023/06/05 08:00:50;;;;;;;7.35;2.80;;;;;;;20.83;63.43;100720.44;5585046;31;34395;-70
2023/06/05 08:03:55;;;;;;;43.50;4.37;;;;;;;20.99;63.30;100710.91;5585816;31;34034;-69
2023/06/05 08:07:00;;;;;;;5.78;2.87;;;;;;;21.15;63.26;100714.87;5585858;31;34484;-69
2023/06/05 08:10:06;;;;;;;17.08;3.28;;;;;;;20.92;63.84;100714.72;5583640;31;34891;-70
2023/06/05 08:13:10;;;;;;;18.23;3.28;;;;;;;21.05;63.23;100718.09;5579687;31;33832;-69
2023/06/05 08:16:15;;;;;;;10.40;3.60;;;;;;;21.09;63.13;100710.34;5576263;31;34211;-69
2023/06/05 08:19:18;;;;;;;15.75;3.70;;;;;;;21.23;62.51;100712.69;5576320;31;33944;-69
2023/06/05 08:22:23;;;;;;;18.52;3.70;;;;;;;21.21;63.06;100714.78;5565734;31;33719;-69
2023/06/05 08:25:27;;;;;;;21.98;3.45;;;;;;;21.37;62.24;100710.59;5568034;31;34292;-69
2023/06/05 08:28:31;;;;;;;10.02;3.20;;;;;;;21.45;61.00;100712.97;5572793;31;34904;-70
2023/06/05 08:31:36;;;;;;;6.95;3.40;;;;;;;21.44;62.15;100713.22;5585733;31;33788;-70
2023/06/05 08:34:39;;;;;;;17.98;3.53;;;;;;;21.39;62.40;100721.19;5584712;31;33867;-70
2023/06/05 08:37:43;;;;;;;5.90;3.60;;;;;;;21.41;63.21;100714.47;5576617;31;34596;-70
2023/06/05 08:40:51;;;;;;;9.38;4.28;;;;;;;21.41;62.93;100721.75;5585163;31;33963;-70
2023/06/05 08:43:54;;;;;;;8.45;2.80;;;;;;;21.56;62.41;100716.75;5585488;31;33952;-70
2023/06/05 08:47:02;;;;;;;16.80;3.95;;;;;;;21.54;63.03;100721.56;5585324;31;34553;-70
2023/06/05 08:50:06;;;;;;;11.00;3.30;;;;;;;21.38;63.00;100712.25;5584778;31;33660;-70
2023/06/05 08:53:12;;;;;;;8.65;3.40;;;;;;;21.64;63.04;100713.69;5585266;31;34346;-69
2023/06/05 08:56:17;;;;;;;14.15;3.78;;;;;;;21.46;64.10;100716.47;5585020;31;33798;-68
2023/06/05 08:59:24;;;;;;;83.25;5.62;;;;;;;21.81;63.48;100719.25;5584774;31;34869;-69
2023/06/05 09:02:28;;;;;;;14.30;3.35;;;;;;;22.00;62.69;100723.53;5584329;31;33875;-70
2023/06/05 09:05:32;;;;;;;10.07;3.37;;;;;;;22.06;62.13;100709.94;5584815;31;33723;-70
2023/06/05 09:08:35;;;;;;;13.40;3.55;;;;;;;22.10;63.10;100718.37;5585166;31;34630;-69
2023/06/05 09:11:39;;;;;;;12.68;3.42;;;;;;;21.99;63.07;100719.19;5584668;31;34702;-69
2023/06/05 09:14:43;;;;;;;22.62;3.28;;;;;;;21.85;63.85;100706.94;5584203;31;32405;-70
2023/06/05 09:17:46;;;;;;;13.48;3.53;;;;;;;22.20;63.09;100698.88;5584684;31;33866;-71
2023/06/05 09:20:50;;;;;;;14.13;3.45;;;;;;;22.42;60.43;100698.00;5584801;31;33718;-69
2023/06/05 09:24:10;;;;;;;10.10;3.42;;;;;;;22.70;62.28;100704.56;5580335;31;32873;-70
2023/06/05 09:27:16;;;;;;;7.35;3.12;;;;;;;23.18;60.30;100706.88;5587543;31;33704;-70
2023/06/05 09:30:20;;;;;;;8.63;3.60;;;;;;;23.32;59.76;100703.62;5587905;31;33814;-71
2023/06/05 09:33:24;;;;;;;14.52;3.28;;;;;;;23.03;61.04;100701.19;5587622;31;34311;-71
2023/06/05 09:36:28;;;;;;;7.35;3.70;;;;;;;23.43;58.67;100699.19;5587479;31;35030;-71
2023/06/05 09:39:33;;;;;;;20.37;3.72;;;;;;;23.62;55.89;100700.66;5587798;31;34422;-71
2023/06/05 09:42:37;;;;;;;13.27;3.70;;;;;;;23.77;56.95;100700.06;5587245;31;33986;-72
2023/06/05 09:45:43;;;;;;;11.52;3.47;;;;;;;23.85;57.62;100704.25;5589294;31;34175;-70
2023/06/05 09:48:59;;;;;;;6.07;3.15;;;;;;;23.58;55.88;100704.91;5581281;31;34210;-69
2023/06/05 09:52:03;;;;;;;5.90;3.00;;;;;;;24.43;55.07;100710.03;5592540;31;33761;-69
2023/06/05 09:55:08;;;;;;;10.13;3.47;;;;;;;24.62;54.25;100703.25;5594020;31;33332;-70
2023/06/05 09:58:19;;;;;;;9.07;3.15;;;;;;;24.76;52.08;100708.28;5590186;31;34609;-70
2023/06/05 10:01:24;;;;;;;7.18;2.80;;;;;;;25.16;51.53;100707.94;5587590;31;34508;-69
2023/06/05 10:04:29;;;;;;;5.70;3.35;;;;;;;26.07;47.44;100695.16;5585719;31;33660;-69
2023/06/05 10:07:40;;;;;;;9.02;3.05;;;;;;;25.82;46.73;100699.34;5590829;31;33883;-69
2023/06/05 10:10:45;;;;;;;7.47;3.03;;;;;;;26.33;48.24;100691.56;5585690;31;33923;-70
2023/06/05 10:13:49;;;;;;;6.97;3.15;;;;;;;26.07;48.30;100685.09;5586267;31;34605;-70
2023/06/05 10:16:56;;;;;;;7.40;3.10;;;;;;;26.56;46.53;100679.41;5587608;31;33820;-71
2023/06/05 10:20:01;;;;;;;248.95;12.93;;;;;;;26.75;45.73;100683.28;5586443;31;34804;-69
2023/06/05 10:23:06;;;;;;;11.88;3.58;;;;;;;26.88;45.10;100674.66;5585949;31;33845;-70
2023/06/05 10:26:30;;;;;;;7.37;3.17;;;;;;;26.93;45.93;100671.94;5586235;31;34770;-70
2023/06/05 10:29:43;;;;;;;6.80;3.12;;;;;;;28.16;41.59;100668.19;5587234;31;34860;-70
2023/06/05 10:33:17;;;;;;;6.40;2.97;;;;;;;28.80;41.31;100668.25;5586190;31;34385;-69
2023/06/05 10:36:43;;;;;;;9.85;3.05;;;;;;;30.09;38.10;100657.66;5583436;31;34463;-69
2023/06/05 10:39:47;;;;;;;9.00;2.80;;;;;;;30.67;36.37;100658.34;5567811;32;34881;-71
2023/06/05 10:42:51;;;;;;;9.45;3.05;;;;;;;31.77;34.53;100657.78;5567662;32;33800;-70
2023/06/05 10:45:56;;;;;;;7.82;2.30;;;;;;;33.30;31.49;100649.97;5578630;31;34642;-70
2023/06/05 10:49:19;;;;;;;7.43;2.33;;;;;;;34.05;26.98;100649.91;5581036;31;33705;-70
2023/06/05 10:52:38;;;;;;;10.98;2.15;;;;;;;34.48;24.81;100644.56;5576140;31;33708;-70
2023/06/05 10:55:47;;;;;;;2.60;1.67;;;;;;;35.02;24.15;100648.72;5572334;31;34948;-70
2023/06/05 10:59:16;;;;;;;4.35;2.15;;;;;;;33.39;25.23;100642.56;5578801;31;34220;-70
2023/06/05 11:02:19;;;;;;;5.32;2.62;;;;;;;36.59;23.16;100640.50;5584345;31;33964;-71
2023/06/05 11:05:23;;;;;;;6.03;2.20;;;;;;;35.80;23.09;100643.13;5571754;31;35013;-72
2023/06/05 11:08:27;;;;;;;9.75;2.20;;;;;;;31.99;26.20;100637.91;5575642;31;34758;-69
2023/06/05 11:12:00;;;;;;;19.30;2.47;;;;;;;33.76;24.66;100638.59;5584971;31;33948;-70
2023/06/05 11:15:06;;;;;;;8.43;2.15;;;;;;;33.91;24.31;100640.94;5577457;31;34083;-70
2023/06/05 11:18:29;;;;;;;9.40;2.65;;;;;;;31.33;28.01;100636.28;5576829;31;33895;-69
2023/06/05 11:22:02;;;;;;;4.97;2.03;;;;;;;34.06;26.27;100632.28;5577088;31;34794;-69
2023/06/05 11:25:15;;;;;;;4.75;2.00;;;;;;;33.91;25.34;100621.69;5580037;31;33739;-69
2023/06/05 11:28:40;;;;;;;6.93;2.30;;;;;;;34.55;25.19;100627.56;5584918;31;33589;-69
2023/06/05 11:31:45;;;;;;;11.55;2.47;;;;;;;33.82;26.20;100624.41;5582821;31;34172;-68
2023/06/05 11:34:51;;;;;;;5.53;2.45;;;;;;;33.70;26.55;100632.41;5575391;31;34540;-68
2023/06/05 11:38:12;;;;;;;3.85;2.20;;;;;;;34.01;26.38;100624.97;5567383;32;34412;-70
2023/06/05 11:41:17;;;;;;;9.27;2.40;;;;;;;33.90;26.95;100615.38;5570052;31;34141;-69
2023/06/05 11:44:35;;;;;;;5.15;2.30;;;;;;;33.88;26.36;100622.31;5567005;32;34558;-69
2023/06/05 11:47:39;;;;;;;7.78;2.33;;;;;;;34.19;25.10;100614.84;5576216;31;34258;-69
2023/06/05 11:51:03;;;;;;;6.53;2.35;;;;;;;33.56;26.28;100620.66;5586027;31;34080;-70
2023/06/05 11:54:14;;;;;;;9.27;2.33;;;;;;;34.64;25.66;100609.09;5585429;31;33842;-69
2023/06/05 11:57:19;;;;;;;9.93;2.30;;;;;;;35.08;24.83;100611.59;5570274;31;33957;-69
2023/06/05 12:00:26;;;;;;;7.47;2.60;;;;;;;34.88;25.00;100610.28;5566925;32;33870;-70
2023/06/05 12:03:32;;;;;;;10.77;2.30;;;;;;;34.70;26.30;100611.44;5577261;31;33921;-69
2023/06/05 12:06:48;;;;;;;14.05;2.75;;;;;;;34.42;25.03;100596.28;5573625;31;34436;-70
2023/06/05 12:09:52;;;;;;;4.62;2.15;;;;;;;32.85;26.77;100591.34;5576881;31;33850;-69
2023/06/05 12:12:56;;;;;;;5.20;2.42;;;;;;;32.16;27.75;100582.41;5584650;31;33617;-70
2023/06/05 12:16:01;;;;;;;3.28;1.85;;;;;;;33.50;27.67;100589.72;5585318;31;33856;-70
2023/06/05 12:19:17;;;;;;;4.90;2.42;;;;;;;34.04;26.80;100580.28;5583886;31;33806;-71
2023/06/05 12:22:22;;;;;;;5.90;2.12;;;;;;;32.60;27.69;100570.75;5585853;31;35021;-73
2023/06/05 12:25:25;;;;;;;6.32;2.20;;;;;;;32.18;28.24;100570.03;5584063;31;33928;-69
2023/06/05 12:28:30;;;;;;;4.15;2.30;;;;;;;32.16;28.23;100568.69;5578226;31;34988;-69
2023/06/05 12:31:39;;;;;;;9.77;2.22;;;;;;;32.55;27.57;100562.59;5582736;31;33925;-70
2023/06/05 12:34:46;;;;;;;5.53;2.00;;;;;;;31.83;28.61;100556.97;5576517;31;34320;-70
2023/06/05 12:37:52;;;;;;;5.47;2.50;;;;;;;32.49;27.59;100559.16;5583118;31;33758;-69
2023/06/05 12:40:57;;;;;;;8.75;2.40;;;;;;;32.39;28.50;100558.59;5585479;31;34670;-69
2023/06/05 12:44:10;;;;;;;6.12;2.03;;;;;;;31.65;29.45;100541.44;5585111;31;33808;-69
2023/06/05 12:47:13;;;;;;;8.85;2.60;;;;;;;31.46;29.15;100547.78;5579616;31;33558;-69
2023/06/05 12:50:16;;;;;;;8.40;2.58;;;;;;;31.32;29.51;100548.87;5585566;31;34278;-69
2023/06/05 12:53:21;;;;;;;7.12;2.65;;;;;;;29.80;30.44;100540.88;5585534;31;34827;-70
2023/06/05 12:56:28;;;;;;;6.43;2.65;;;;;;;30.20;30.62;100536.03;5586836;31;33631;-69
2023/06/05 12:59:33;;;;;;;6.82;2.05;;;;;;;30.09;31.07;100531.81;5592532;31;33828;-70
2023/06/05 13:02:40;;;;;;;10.13;2.25;;;;;;;29.70;30.14;100529.22;5591485;31;33853;-68
2023/06/05 13:05:44;;;;;;;4.68;2.28;;;;;;;30.19;30.70;100521.53;5592141;31;33671;-69
2023/06/05 13:08:48;;;;;;;6.43;2.22;;;;;;;31.11;29.10;100529.22;5591618;31;34970;-69
2023/06/05 13:11:54;;;;;;;7.47;2.40;;;;;;;31.34;28.31;100524.69;5591547;31;33903;-70
2023/06/05 13:15:00;;;;;;;5.90;2.33;;;;;;;31.25;28.62;100518.28;5591856;31;34432;-69
2023/06/05 13:18:05;;;;;;;8.10;2.40;;;;;;;30.59;30.17;100516.62;5591529;31;33586;-69
2023/06/05 13:21:09;;;;;;;8.05;2.70;;;;;;;29.85;30.46;100514.56;5590713;31;34609;-69
2023/06/05 13:24:13;;;;;;;10.57;2.58;;;;;;;30.29;30.70;100515.13;5590241;31;34045;-69
2023/06/05 13:27:18;;;;;;;4.93;2.30;;;;;;;29.85;30.37;100509.09;5591649;31;33926;-69
2023/06/05 13:30:22;;;;;;;6.95;2.03;;;;;;;30.40;30.05;100510.31;5587824;31;34621;-69
2023/06/05 13:33:25;;;;;;;13.40;2.70;;;;;;;30.71;28.47;100506.00;5587889;31;32854;-69
2023/06/05 13:36:29;;;;;;;9.43;2.65;;;;;;;30.57;28.65;100505.16;5581570;31;33736;-69
2023/06/05 13:39:33;;;;;;;9.02;2.53;;;;;;;29.56;30.19;100509.16;5581017;31;33929;-69
2023/06/05 13:42:38;;;;;;;6.93;2.30;;;;;;;29.52;30.67;100508.13;5578547;31;32761;-69
2023/06/05 13:45:42;;;;;;;19.70;2.97;;;;;;;29.32;31.10;100511.87;5590590;31;34136;-69
2023/06/05 13:48:45;;;;;;;43.85;3.67;;;;;;;29.58;30.15;100507.75;5589639;31;33995;-68
2023/06/05 13:51:49;;;;;;;17.40;2.90;;;;;;;29.80;30.92;100499.03;5588125;31;34292;-69
2023/06/05 13:54:53;;;;;;;7.97;2.58;;;;;;;29.91;30.45;100497.03;5574902;31;33764;-70
2023/06/05 13:58:01;;;;;;;8.45;2.80;;;;;;;29.24;30.23;100493.34;5585657;31;34037;-68
2023/06/05 14:01:05;;;;;;;5.93;2.33;;;;;;;29.33;30.86;100499.84;5589200;31;34081;-68
2023/06/05 14:04:11;;;;;;;15.90;2.42;;;;;;;29.18;30.97;100492.59;5582248;31;33888;-68
2023/06/05 14:07:16;;;;;;;6.68;2.40;;;;;;;28.69;31.63;100486.41;5584373;31;33668;-68
2023/06/05 14:10:22;;;;;;;24.23;2.92;;;;;;;27.83;32.41;100492.38;5571993;31;33736;-69
2023/06/05 14:13:27;;;;;;;9.85;2.72;;;;;;;28.04;32.79;100489.25;5573992;31;32521;-68
2023/06/05 14:16:32;;;;;;;13.77;2.60;;;;;;;28.03;33.69;100487.59;5579707;31;34304;-68
2023/06/05 14:19:39;;;;;;;3.55;2.17;;;;;;;27.92;32.68;100477.87;5586217;31;32514;-68
2023/06/05 14:22:43;;;;;;;15.82;2.70;;;;;;;28.05;33.65;100479.16;5585210;31;34048;-68
2023/06/05 14:25:49;;;;;;;8.88;2.70;;;;;;;28.21;32.50;100471.75;5584077;31;35061;-68
2023/06/05 14:28:54;;;;;;;9.05;2.33;;;;;;;27.72;33.24;100472.50;5586444;31;34244;-67